Time;durP1;ratioP1;P1;durP2;ratioP2;P2;SDS_P1;SDS_P2;PMS_P1;PMS_P2;Temp;Humidity;BMP_temperature;BMP_pressure;BME280_temperature;BME280_humidity;BME280_pressure;Samples;Min_cycle;Max_cycle;Signal;HPM_P1;HPM_P2
2022/12/01 00:00:04;;;;;;;68.30;28.20;;;;;;;8.80;68.00;102027.00;683617;29;1282;-85
2022/12/01 00:00:25;;;;;;;68.60;27.90;;;;;;;8.73;68.15;102016.25;683161;29;1388;-85
2022/12/01 00:00:46;;;;;;;71.43;28.70;;;;;;;8.79;68.28;102027.81;681098;29;856;-85
2022/12/01 00:01:08;;;;;;;71.05;29.13;;;;;;;8.80;68.28;102021.81;680791;29;1089;-84
2022/12/01 00:01:28;;;;;;;66.55;29.00;;;;;;;8.73;68.22;102012.75;683605;29;1249;-84
2022/12/01 00:01:50;;;;;;;65.43;28.85;;;;;;;8.79;68.17;102027.81;681128;29;869;-85
2022/12/01 00:02:10;;;;;;;66.10;29.50;;;;;;;8.73;68.27;102015.38;678308;29;1137;-85
2022/12/01 00:02:31;;;;;;;68.32;29.67;;;;;;;8.80;68.33;102024.41;675912;29;776;-85
2022/12/01 00:02:52;;;;;;;65.63;28.95;;;;;;;8.80;68.21;102021.81;675827;29;1295;-85
2022/12/01 00:03:13;;;;;;;64.13;28.57;;;;;;;8.78;67.91;102026.91;675472;29;999;-85
2022/12/01 00:03:34;;;;;;;61.00;27.88;;;;;;;8.80;68.13;102024.41;673138;29;1067;-85
2022/12/01 00:03:54;;;;;;;61.60;28.25;;;;;;;8.76;68.12;102019.03;672920;29;1150;-85
2022/12/01 00:04:15;;;;;;;58.53;27.90;;;;;;;8.77;67.96;102015.63;672787;29;1273;-84
2022/12/01 00:04:35;;;;;;;62.03;27.95;;;;;;;8.76;68.38;102016.44;678034;29;1980;-84
2022/12/01 00:04:57;;;;;;;62.42;27.65;;;;;;;8.76;67.82;102012.91;680935;29;1217;-85
2022/12/01 00:05:18;;;;;;;62.60;27.60;;;;;;;8.76;67.93;102016.44;678100;29;1107;-85
2022/12/01 00:05:39;;;;;;;59.08;27.50;;;;;;;8.82;68.16;102017.56;675657;29;1643;-84
2022/12/01 00:06:05;;;;;;;60.85;27.63;;;;;;;8.79;67.70;102012.19;675707;29;1348;-85
2022/12/01 00:06:26;;;;;;;63.47;28.40;;;;;;;8.90;67.76;102024.09;678059;29;1297;-85
2022/12/01 00:06:46;;;;;;;63.65;27.60;;;;;;;8.86;67.91;102004.81;675534;29;1049;-85
2022/12/01 00:07:07;;;;;;;59.95;26.88;;;;;;;8.91;67.61;102018.09;675634;29;1145;-85
2022/12/01 00:07:27;;;;;;;57.70;26.40;;;;;;;8.85;67.39;102007.34;680882;29;1270;-85
2022/12/01 00:07:48;;;;;;;56.42;27.17;;;;;;;8.85;67.65;102013.41;680943;29;1391;-85
2022/12/01 00:08:09;;;;;;;55.55;27.08;;;;;;;8.82;67.89;102018.47;678485;29;1198;-85
2022/12/01 00:08:30;;;;;;;54.90;26.13;;;;;;;8.85;67.79;102029.03;680986;29;1287;-84
2022/12/01 00:10:25;;;;;;;57.40;27.15;;;;;;;8.86;67.80;102011.72;678119;29;1100;-84
2022/12/01 00:10:46;;;;;;;56.92;27.15;;;;;;;8.82;68.04;102014.97;678329;29;1274;-84
2022/12/01 00:11:10;;;;;;;56.05;26.73;;;;;;;8.84;67.86;102018.56;680879;28;1171;-85
2022/12/01 00:11:32;;;;;;;56.25;26.85;;;;;;;8.84;67.97;102015.97;681079;29;1102;-85
2022/12/01 00:11:55;;;;;;;57.15;26.45;;;;;;;8.82;68.07;102009.75;675818;29;1640;-85
2022/12/01 00:12:15;;;;;;;56.88;25.85;;;;;;;8.90;67.74;102021.47;673021;29;1147;-85
2022/12/01 00:12:42;;;;;;;56.90;25.38;;;;;;;8.85;68.04;102018.63;673314;29;749;-85
2022/12/01 00:13:04;;;;;;;57.08;25.77;;;;;;;8.75;67.77;102009.44;673205;29;1221;-85
2022/12/01 00:13:25;;;;;;;59.97;26.02;;;;;;;8.82;67.86;102023.69;675801;29;991;-84
2022/12/01 00:13:45;;;;;;;58.30;26.50;;;;;;;8.80;68.21;102008.78;681093;29;1288;-85
2022/12/01 00:14:06;;;;;;;57.70;26.57;;;;;;;8.80;67.96;102014.00;678251;29;1379;-84
2022/12/01 00:14:27;;;;;;;55.53;26.50;;;;;;;8.79;68.20;102004.41;680989;29;1253;-85
2022/12/01 00:14:53;;;;;;;57.72;25.75;;;;;;;8.81;68.10;102005.38;678510;29;1178;-84
2022/12/01 00:15:14;;;;;;;55.67;25.35;;;;;;;8.77;68.45;102012.09;678190;29;1381;-85
2022/12/01 00:15:36;;;;;;;55.53;25.47;;;;;;;8.78;68.00;102011.28;678502;29;837;-84
2022/12/01 00:15:56;;;;;;;56.05;25.55;;;;;;;8.79;68.07;102010.50;678461;29;773;-85
2022/12/01 00:16:17;;;;;;;58.30;26.10;;;;;;;8.81;67.82;102010.56;675513;29;1177;-84
2022/12/01 00:16:39;;;;;;;57.00;25.40;;;;;;;8.81;68.31;102011.47;675675;29;1289;-85
2022/12/01 00:16:59;;;;;;;54.90;25.17;;;;;;;8.83;68.23;102008.97;673413;29;1211;-85
2022/12/01 00:17:20;;;;;;;53.50;25.10;;;;;;;8.80;68.20;102009.69;680893;29;1214;-84
2022/12/01 00:17:44;;;;;;;53.38;25.42;;;;;;;8.85;68.22;102017.75;683853;29;808;-85
2022/12/01 00:18:05;;;;;;;54.95;25.80;;;;;;;8.85;67.84;102018.63;681033;29;1348;-84
2022/12/01 00:18:25;;;;;;;56.15;26.33;;;;;;;8.87;67.92;102014.44;675737;29;1297;-84
2022/12/01 00:18:49;;;;;;;57.80;26.70;;;;;;;8.90;68.22;102016.28;675923;29;718;-84
2022/12/01 00:19:10;;;;;;;55.38;26.35;;;;;;;8.87;67.95;102026.53;678247;29;1154;-85
2022/12/01 00:19:30;;;;;;;54.50;26.60;;;;;;;8.82;68.01;102012.34;680354;29;737;-84
2022/12/01 00:19:51;;;;;;;56.38;27.00;;;;;;;8.81;67.71;102007.97;682846;29;1096;-84
2022/12/01 00:20:13;;;;;;;57.70;26.77;;;;;;;8.85;68.08;102018.63;680479;29;1158;-85
2022/12/01 00:20:35;;;;;;;56.92;26.17;;;;;;;8.74;68.02;102009.34;675292;29;1503;-84
2022/12/01 00:20:55;;;;;;;52.47;24.67;;;;;;;8.76;68.40;102005.13;675417;29;1321;-84
2022/12/01 00:21:18;;;;;;;50.70;24.17;;;;;;;8.83;68.01;102024.59;675205;29;1125;-85
2022/12/01 00:21:39;;;;;;;50.05;24.50;;;;;;;8.76;68.17;102008.63;678112;29;792;-85
2022/12/01 00:22:00;;;;;;;49.50;23.83;;;;;;;8.74;68.20;102009.34;680597;29;1250;-84
2022/12/01 00:22:20;;;;;;;48.30;24.23;;;;;;;8.74;68.13;102015.44;680407;29;1046;-84
2022/12/01 00:22:42;;;;;;;46.58;23.80;;;;;;;8.74;68.43;102009.34;678020;29;1160;-85
2022/12/01 00:23:03;;;;;;;50.85;24.85;;;;;;;8.75;68.00;102006.84;678149;29;1055;-85
2022/12/01 00:23:23;;;;;;;53.10;25.00;;;;;;;8.77;68.12;102010.41;678022;29;1411;-84
2022/12/01 00:23:46;;;;;;;55.88;25.80;;;;;;;8.81;68.11;102010.56;680683;29;1254;-85
2022/12/01 00:24:09;;;;;;;51.65;25.58;;;;;;;8.74;68.39;102004.16;680547;29;1156;-85
2022/12/01 00:24:29;;;;;;;49.80;24.98;;;;;;;8.76;68.33;102011.22;680495;29;1911;-84
2022/12/01 00:24:50;;;;;;;50.70;24.73;;;;;;;8.75;67.98;102005.94;683267;29;1299;-85
2022/12/01 00:25:12;;;;;;;54.93;25.77;;;;;;;8.76;68.42;102008.63;683115;29;1147;-85
2022/12/01 00:25:32;;;;;;;55.58;25.90;;;;;;;8.82;68.20;102017.56;680666;29;1502;-84
2022/12/01 00:25:53;;;;;;;53.20;24.83;;;;;;;8.79;68.31;102004.41;675546;29;760;-84
2022/12/01 00:26:19;;;;;;;52.58;24.40;;;;;;;8.79;68.12;102015.72;677536;29;1226;-84
2022/12/01 00:26:39;;;;;;;54.17;25.15;;;;;;;8.76;68.19;102007.72;677749;29;872;-85
2022/12/01 00:27:01;;;;;;;55.60;25.25;;;;;;;8.75;68.46;102004.22;677973;29;1119;-85
2022/12/01 00:27:22;;;;;;;53.47;25.15;;;;;;;8.80;67.93;102011.38;680463;29;1285;-84
2022/12/01 00:27:47;;;;;;;51.40;24.10;;;;;;;8.77;68.12;102004.28;683223;29;1283;-84
2022/12/01 00:28:08;;;;;;;54.50;24.38;;;;;;;8.76;68.04;102005.13;683133;29;1204;-85
2022/12/01 00:28:28;;;;;;;55.90;24.88;;;;;;;8.73;68.05;102004.97;680398;29;1136;-85
2022/12/01 00:28:54;;;;;;;56.00;25.53;;;;;;;8.67;68.51;102008.13;672968;29;766;-84
2022/12/01 00:29:14;;;;;;;57.50;25.75;;;;;;;8.70;68.40;102003.06;675243;29;1121;-85
2022/12/01 00:29:35;;;;;;;55.83;25.43;;;;;;;8.71;68.26;101999.66;675517;29;781;-84
2022/12/01 00:29:56;;;;;;;54.50;25.25;;;;;;;8.68;68.31;101999.50;680678;29;1140;-85
2022/12/01 00:30:18;;;;;;;49.80;24.77;;;;;;;8.71;68.19;101999.66;677795;29;1281;-84
2022/12/01 00:30:39;;;;;;;49.33;24.33;;;;;;;8.76;68.00;102013.84;677973;29;1204;-84
2022/12/01 00:30:59;;;;;;;47.30;24.25;;;;;;;8.72;68.38;101997.97;680809;29;1173;-84
2022/12/01 00:31:20;;;;;;;50.20;24.57;;;;;;;8.76;68.06;102008.63;680438;29;1007;-84
2022/12/01 00:31:41;;;;;;;52.35;24.75;;;;;;;8.75;68.13;102014.66;680592;28;1425;-85
2022/12/01 00:32:01;;;;;;;53.23;24.53;;;;;;;8.73;68.23;102008.44;680694;29;1083;-85
2022/12/01 00:32:22;;;;;;;53.35;24.45;;;;;;;8.79;68.28;102012.19;677815;29;1303;-84
2022/12/01 00:32:43;;;;;;;53.95;24.40;;;;;;;8.77;68.15;102009.50;680651;29;1238;-85
2022/12/01 00:33:04;;;;;;;53.38;24.17;;;;;;;8.72;68.00;101996.25;683221;29;1324;-85
2022/12/01 00:33:24;;;;;;;52.05;24.38;;;;;;;8.73;68.30;102008.44;683049;29;1310;-85
2022/12/01 00:33:45;;;;;;;50.00;25.10;;;;;;;8.74;67.91;102006.75;683392;29;733;-85
2022/12/01 00:34:06;;;;;;;51.10;24.90;;;;;;;8.79;68.17;102014.81;683212;29;1161;-84
2022/12/01 00:34:27;;;;;;;50.28;24.55;;;;;;;8.73;68.10;101998.03;677941;29;1106;-84
2022/12/01 00:34:47;;;;;;;47.60;23.67;;;;;;;8.79;67.98;102018.31;678122;29;729;-84
2022/12/01 00:35:08;;;;;;;49.37;23.70;;;;;;;8.74;68.18;102005.03;677927;29;1166;-85
2022/12/01 00:35:28;;;;;;;51.53;23.45;;;;;;;8.74;68.05;101999.81;675376;29;1144;-85
2022/12/01 00:35:49;;;;;;;54.60;23.00;;;;;;;8.73;67.96;102000.63;672942;29;1317;-85
2022/12/01 00:36:10;;;;;;;51.30;22.73;;;;;;;8.74;68.25;102010.22;677432;29;1152;-85
2022/12/01 00:36:32;;;;;;;49.53;22.92;;;;;;;8.70;68.34;101995.25;683450;29;792;-85
2022/12/01 00:36:52;;;;;;;51.63;24.00;;;;;;;8.75;68.42;102016.34;677929;29;1301;-85
2022/12/01 00:37:13;;;;;;;51.10;24.25;;;;;;;8.71;68.21;102003.94;677868;29;1212;-85
2022/12/01 00:37:34;;;;;;;52.67;24.17;;;;;;;8.70;68.34;102010.88;678147;29;1289;-85
2022/12/01 00:37:54;;;;;;;50.47;23.65;;;;;;;8.69;68.25;102001.28;680709;29;1187;-85
2022/12/01 00:38:15;;;;;;;51.20;23.63;;;;;;;8.71;68.46;102001.34;680430;29;1232;-85
2022/12/01 00:38:36;;;;;;;52.92;23.77;;;;;;;8.68;68.57;102004.69;678125;29;1259;-85
2022/12/01 00:38:57;;;;;;;55.20;24.40;;;;;;;8.71;68.31;102010.06;678147;29;887;-84
2022/12/01 00:39:18;;;;;;;53.92;24.45;;;;;;;8.67;68.46;102008.13;680627;29;1166;-85
2022/12/01 00:39:38;;;;;;;53.33;24.85;;;;;;;8.68;68.34;102004.69;680801;29;1181;-84
2022/12/01 00:39:59;;;;;;;51.43;24.30;;;;;;;8.67;68.55;102005.53;680749;29;772;-85
2022/12/01 00:40:20;;;;;;;52.15;24.42;;;;;;;8.65;68.24;102001.91;677739;29;1117;-85
2022/12/01 00:40:41;;;;;;;49.60;24.20;;;;;;;8.64;68.47;102007.94;672902;29;1166;-84
2022/12/01 00:41:02;;;;;;;49.13;23.63;;;;;;;8.62;68.26;102000.03;670394;29;1304;-84
2022/12/01 00:41:24;;;;;;;46.67;22.45;;;;;;;8.64;68.70;101997.53;670181;29;1192;-84
2022/12/01 00:41:45;;;;;;;45.95;22.00;;;;;;;8.67;68.01;102008.13;678045;29;1127;-84
2022/12/01 00:42:06;;;;;;;46.88;22.27;;;;;;;8.71;68.43;102012.66;678017;29;1239;-84
2022/12/01 00:42:27;;;;;;;46.40;22.70;;;;;;;8.71;68.06;102010.06;675201;29;1276;-85
2022/12/01 00:42:47;;;;;;;49.08;23.65;;;;;;;8.71;68.43;102007.47;675427;29;1249;-85
2022/12/01 00:43:08;;;;;;;49.17;24.52;;;;;;;8.71;68.33;102004.84;677915;29;1089;-84
2022/12/01 00:43:28;;;;;;;50.10;24.73;;;;;;;8.66;68.31;102006.31;678165;29;1378;-84
2022/12/01 00:43:50;;;;;;;47.23;23.57;;;;;;;8.73;68.07;102013.63;675484;29;1271;-84
2022/12/01 00:44:10;;;;;;;47.90;23.23;;;;;;;8.72;68.19;102009.25;677797;29;1172;-84
2022/12/01 00:44:31;;;;;;;47.72;22.95;;;;;;;8.72;68.06;102011.84;677944;29;2259;-84
2022/12/01 00:44:52;;;;;;;50.45;22.75;;;;;;;8.70;68.12;101999.56;680633;29;1149;-84
2022/12/01 00:45:12;;;;;;;52.08;23.05;;;;;;;8.73;68.06;102003.22;680523;29;1128;-85
2022/12/01 00:45:33;;;;;;;53.38;22.92;;;;;;;8.72;68.47;102000.56;683327;29;1160;-84
2022/12/01 00:45:55;;;;;;;51.37;23.40;;;;;;;8.72;68.26;102001.44;677956;29;1067;-84
2022/12/01 00:46:15;;;;;;;50.58;23.40;;;;;;;8.80;68.07;102014.00;675194;29;1223;-84
2022/12/01 00:46:36;;;;;;;52.15;24.42;;;;;;;8.72;67.90;102001.44;677782;29;1165;-84
2022/12/01 00:46:57;;;;;;;53.77;24.10;;;;;;;8.72;67.95;102005.78;677975;29;1202;-84
2022/12/01 00:47:17;;;;;;;52.20;24.13;;;;;;;8.77;67.89;102012.09;677653;29;1093;-85
2022/12/01 00:47:38;;;;;;;49.60;22.95;;;;;;;8.73;68.14;102010.16;680660;29;1195;-84
2022/12/01 00:47:59;;;;;;;51.72;23.75;;;;;;;8.68;68.46;102007.31;683064;28;1307;-84
2022/12/01 00:48:19;;;;;;;51.83;23.63;;;;;;;8.72;68.35;102009.25;680428;29;1337;-85
2022/12/01 00:48:40;;;;;;;49.73;24.07;;;;;;;8.77;68.41;102017.31;675398;29;1172;-84
2022/12/01 00:49:01;;;;;;;47.92;23.90;;;;;;;8.76;68.29;102019.03;672810;29;1239;-85
2022/12/01 00:49:21;;;;;;;47.83;23.33;;;;;;;8.68;67.95;102004.69;677773;29;1221;-84
2022/12/01 00:49:44;;;;;;;51.03;23.80;;;;;;;8.68;67.96;102004.69;677945;29;1186;-85
2022/12/01 00:50:05;;;;;;;51.10;24.08;;;;;;;8.74;68.19;102015.44;677838;29;1333;-85
2022/12/01 00:50:26;;;;;;;48.50;24.02;;;;;;;8.75;68.27;102017.25;678078;29;1080;-84
2022/12/01 00:50:49;;;;;;;45.75;23.48;;;;;;;8.75;68.20;102017.25;675423;29;1154;-84
2022/12/01 00:51:10;;;;;;;44.38;23.45;;;;;;;8.72;68.02;102001.44;677538;29;1094;-84
2022/12/01 00:51:31;;;;;;;48.83;23.93;;;;;;;8.79;67.99;102020.00;680533;29;1166;-84
2022/12/01 00:51:51;;;;;;;49.10;23.17;;;;;;;8.75;68.23;102012.03;678078;29;773;-84
2022/12/01 00:52:13;;;;;;;50.58;23.35;;;;;;;8.77;68.18;102010.41;677614;29;1188;-85
2022/12/01 00:52:34;;;;;;;46.92;22.80;;;;;;;8.71;67.84;102004.84;677962;29;1346;-84
2022/12/01 00:52:54;;;;;;;48.50;23.03;;;;;;;8.74;67.84;102010.22;683281;29;784;-84
2022/12/01 00:53:15;;;;;;;48.83;23.40;;;;;;;8.80;68.18;102016.59;680301;29;1277;-84
2022/12/01 00:53:35;;;;;;;51.03;23.48;;;;;;;8.77;67.76;102010.41;677868;29;1317;-84
2022/12/01 00:53:57;;;;;;;49.75;23.50;;;;;;;8.75;67.69;102012.03;680696;29;1101;-85
2022/12/01 00:54:18;;;;;;;51.20;23.35;;;;;;;8.80;67.93;102014.00;680316;29;1306;-85
2022/12/01 00:54:38;;;;;;;54.20;24.02;;;;;;;8.81;68.05;102013.16;682881;29;1194;-84
2022/12/01 00:54:59;;;;;;;52.63;24.23;;;;;;;8.84;68.07;102015.97;677943;29;1450;-84
2022/12/01 00:55:20;;;;;;;50.70;23.30;;;;;;;8.80;67.98;102011.38;680424;29;1142;-85
2022/12/01 00:55:40;;;;;;;47.78;22.65;;;;;;;8.87;67.92;102026.53;683232;29;1346;-85
2022/12/01 00:56:01;;;;;;;48.97;22.63;;;;;;;8.80;67.86;102014.00;678035;29;1095;-85
2022/12/01 00:56:21;;;;;;;47.83;23.13;;;;;;;8.80;68.26;102020.09;678137;29;1343;-84
2022/12/01 00:56:42;;;;;;;46.67;23.90;;;;;;;8.74;67.86;102023.25;677822;29;1208;-85
2022/12/01 00:57:04;;;;;;;46.60;23.70;;;;;;;8.80;68.28;102019.19;680467;29;1276;-85
2022/12/01 00:57:24;;;;;;;46.70;23.88;;;;;;;8.80;67.99;102019.19;677914;29;1172;-84
2022/12/01 00:57:45;;;;;;;48.60;22.80;;;;;;;8.77;67.62;102015.63;680656;29;863;-85
2022/12/01 00:58:06;;;;;;;47.13;22.73;;;;;;;8.80;67.55;102025.31;677810;29;1203;-84
2022/12/01 00:58:27;;;;;;;47.53;22.60;;;;;;;8.70;68.11;102020.38;677736;29;1332;-85
2022/12/01 00:58:48;;;;;;;47.67;22.65;;;;;;;8.63;68.48;102022.66;680368;28;1262;-85
2022/12/01 00:59:09;;;;;;;50.40;22.90;;;;;;;8.57;68.42;102027.47;680489;29;1139;-85
2022/12/01 00:59:30;;;;;;;53.03;23.27;;;;;;;8.50;68.67;102014.94;677929;29;1356;-84
2022/12/01 00:59:51;;;;;;;56.47;23.35;;;;;;;8.48;68.52;102013.97;680703;29;1065;-85
2022/12/01 01:00:12;;;;;;;54.25;23.20;;;;;;;8.50;68.79;102025.34;682966;29;1226;-85
2022/12/01 01:00:33;;;;;;;50.88;22.92;;;;;;;8.51;68.86;102024.53;686024;28;859;-84
2022/12/01 01:00:58;;;;;;;50.20;22.97;;;;;;;8.46;68.97;102021.66;683227;29;808;-84
2022/12/01 01:01:19;;;;;;;53.70;23.55;;;;;;;8.50;68.91;102021.03;680423;29;1263;-84
2022/12/01 01:01:40;;;;;;;52.13;23.23;;;;;;;8.49;69.06;102023.56;675323;29;820;-85
2022/12/01 01:02:04;;;;;;;47.90;22.67;;;;;;;8.42;69.18;102018.81;675364;29;1053;-84
2022/12/01 01:02:25;;;;;;;43.58;22.02;;;;;;;8.47;68.90;102030.34;672620;29;1081;-85
2022/12/01 01:02:45;;;;;;;44.80;22.17;;;;;;;8.44;68.90;102022.38;672803;29;1081;-83
2022/12/01 01:03:06;;;;;;;46.40;22.80;;;;;;;8.43;69.02;102024.09;677845;29;1034;-84
2022/12/01 01:03:29;;;;;;;49.47;23.02;;;;;;;8.46;69.21;102021.66;677896;29;1240;-85
2022/12/01 01:03:49;;;;;;;48.50;23.60;;;;;;;8.46;69.04;102019.06;680644;29;847;-85
2022/12/01 01:04:10;;;;;;;47.80;24.40;;;;;;;8.50;68.98;102027.94;680376;28;1171;-84
2022/12/01 01:04:32;;;;;;;48.67;23.98;;;;;;;8.46;68.84;102019.06;677881;29;1984;-85
2022/12/01 01:04:52;;;;;;;48.33;23.45;;;;;;;8.46;69.04;102021.66;675381;29;1333;-85
2022/12/01 01:05:13;;;;;;;49.28;23.10;;;;;;;8.49;68.87;102028.75;672414;29;1156;-84
2022/12/01 01:05:41;;;;;;;47.20;23.37;;;;;;;8.47;68.71;102031.25;677763;29;1067;-84
2022/12/01 01:06:08;;;;;;;48.08;23.00;;;;;;;8.41;68.95;102027.44;683107;29;1224;-85
2022/12/01 01:06:29;;;;;;;48.03;23.08;;;;;;;8.42;68.58;102017.09;677739;29;1352;-84
2022/12/01 01:06:50;;;;;;;54.70;24.17;;;;;;;8.61;68.74;102029.44;675190;29;1267;-85
2022/12/01 01:07:10;;;;;;;56.33;24.60;;;;;;;8.64;68.50;102028.75;675188;29;1205;-84
2022/12/01 01:07:31;;;;;;;56.38;23.95;;;;;;;8.67;68.50;102023.72;677998;29;1293;-85
2022/12/01 01:07:51;;;;;;;49.70;23.93;;;;;;;8.64;68.37;102013.13;680633;29;822;-84
2022/12/01 01:08:13;;;;;;;47.80;23.20;;;;;;;8.71;68.43;102027.38;680517;29;1280;-85
2022/12/01 01:08:34;;;;;;;46.88;23.30;;;;;;;8.60;68.22;102017.25;680493;29;1209;-84
2022/12/01 01:08:55;;;;;;;46.25;22.50;;;;;;;8.59;68.15;102015.44;672713;29;1364;-85
2022/12/01 01:09:16;;;;;;;45.67;21.87;;;;;;;8.67;68.42;102021.13;677736;29;1240;-85
2022/12/01 01:09:37;;;;;;;43.63;21.65;;;;;;;8.68;68.34;102019.41;677731;29;1334;-85
2022/12/01 01:09:57;;;;;;;45.85;22.25;;;;;;;8.67;68.28;102018.53;680496;29;1065;-86
2022/12/01 01:10:18;;;;;;;49.10;23.53;;;;;;;8.73;67.92;102023.19;677765;29;1285;-85
2022/12/01 01:10:40;;;;;;;52.90;23.73;;;;;;;8.68;68.03;102017.72;677908;29;1222;-85
2022/12/01 01:11:01;;;;;;;48.17;23.27;;;;;;;8.71;68.27;102024.78;677909;29;1265;-85
2022/12/01 01:11:21;;;;;;;46.00;22.20;;;;;;;8.79;68.12;102022.63;677752;29;1138;-85
2022/12/01 01:11:42;;;;;;;42.65;21.70;;;;;;;8.70;68.07;102017.78;672844;29;935;-85
2022/12/01 01:12:03;;;;;;;45.08;21.83;;;;;;;8.71;68.21;102027.38;675293;29;1347;-85
2022/12/01 01:12:25;;;;;;;46.30;22.67;;;;;;;8.62;68.31;102019.97;675082;29;1212;-84
2022/12/01 01:12:46;;;;;;;47.38;22.73;;;;;;;8.68;67.93;102022.91;675370;29;1212;-84
2022/12/01 01:13:07;;;;;;;49.13;23.50;;;;;;;8.74;68.09;102032.78;675180;29;1125;-84
2022/12/01 01:13:28;;;;;;;49.00;23.20;;;;;;;8.75;67.75;102031.97;677827;29;1142;-85
2022/12/01 01:13:48;;;;;;;47.80;22.55;;;;;;;8.73;67.90;102031.88;675465;29;1262;-85
2022/12/01 01:14:09;;;;;;;45.50;21.30;;;;;;;8.68;68.10;102028.13;672576;29;1215;-85
2022/12/01 01:14:30;;;;;;;44.25;20.98;;;;;;;8.71;68.17;102028.28;672841;29;826;-85
2022/12/01 01:14:51;;;;;;;42.70;20.77;;;;;;;8.75;67.97;102027.66;675324;29;1175;-85
2022/12/01 01:15:11;;;;;;;43.15;21.25;;;;;;;8.78;67.87;102026.91;674931;29;1176;-85
2022/12/01 01:15:32;;;;;;;43.45;21.30;;;;;;;8.84;68.26;102036.78;677924;29;1158;-82
2022/12/01 01:16:14;;;;;;;45.75;21.95;;;;;;;8.85;68.13;102030.78;677880;29;1251;-83
2022/12/01 01:16:35;;;;;;;47.42;22.55;;;;;;;8.90;68.01;102034.50;680549;29;891;-83
2022/12/01 01:16:55;;;;;;;51.40;22.50;;;;;;;8.83;67.58;102024.59;680514;29;1201;-83
2022/12/01 01:17:16;;;;;;;51.88;21.90;;;;;;;8.80;67.75;102024.41;675022;29;1352;-83
2022/12/01 01:17:36;;;;;;;51.30;21.90;;;;;;;8.79;67.91;102020.91;673031;29;1247;-83
2022/12/01 01:17:58;;;;;;;47.45;22.05;;;;;;;8.87;67.72;102036.94;672620;29;1262;-82
2022/12/01 01:18:19;;;;;;;45.40;22.25;;;;;;;8.83;67.46;102024.59;672575;29;1091;-83
2022/12/01 01:18:39;;;;;;;46.67;22.67;;;;;;;8.83;67.62;102024.59;675282;29;1257;-83
2022/12/01 01:19:00;;;;;;;44.60;21.93;;;;;;;8.85;67.62;102033.38;672664;29;1157;-82
2022/12/01 01:19:21;;;;;;;46.60;21.92;;;;;;;8.87;67.54;102031.75;675044;29;1166;-82
2022/12/01 01:19:42;;;;;;;44.08;21.42;;;;;;;8.83;67.58;102025.47;675284;29;1264;-82
2022/12/01 01:20:03;;;;;;;47.03;22.40;;;;;;;8.79;67.85;102020.00;670073;29;1062;-82
2022/12/01 01:20:24;;;;;;;46.10;22.23;;;;;;;8.82;67.60;102026.28;672517;29;1179;-83
2022/12/01 01:20:54;;;;;;;49.78;22.50;;;;;;;8.81;67.80;102032.31;677744;29;1541;-83
2022/12/01 01:21:18;;;;;;;51.63;22.50;;;;;;;8.80;67.80;102021.81;675162;29;1336;-83
2022/12/01 01:21:38;;;;;;;45.20;21.08;;;;;;;8.76;67.52;102024.25;675236;29;1253;-83
2022/12/01 01:21:59;;;;;;;39.72;20.95;;;;;;;8.76;67.63;102029.44;677954;29;1146;-83
2022/12/01 01:22:19;;;;;;;41.58;21.20;;;;;;;8.77;67.95;102031.25;677715;29;1173;-83
2022/12/01 01:22:40;;;;;;;44.27;21.90;;;;;;;8.73;67.86;102029.25;680539;29;1123;-82
2022/12/01 01:23:01;;;;;;;47.08;21.77;;;;;;;8.71;68.15;102024.78;678030;29;833;-83
2022/12/01 01:23:21;;;;;;;46.55;21.92;;;;;;;8.72;67.79;102026.59;675215;29;1324;-83
2022/12/01 01:23:42;;;;;;;48.07;21.77;;;;;;;8.69;67.84;102019.50;670177;29;1166;-83
2022/12/01 01:24:03;;;;;;;46.00;21.52;;;;;;;8.72;67.99;102026.59;672767;29;1083;-83
2022/12/01 01:24:24;;;;;;;47.05;21.30;;;;;;;8.70;67.76;102029.09;680337;29;1414;-82
2022/12/01 01:24:44;;;;;;;45.17;21.58;;;;;;;8.70;68.04;102023.91;677941;29;1966;-82
2022/12/01 01:25:05;;;;;;;49.73;22.20;;;;;;;8.74;68.08;102035.38;677948;29;1258;-83
2022/12/01 01:25:26;;;;;;;50.03;22.60;;;;;;;8.68;68.01;102022.91;672719;29;1210;-83
2022/12/01 01:25:46;;;;;;;52.17;22.83;;;;;;;8.71;68.06;102022.16;675316;29;1205;-83
2022/12/01 01:26:11;;;;;;;48.65;22.70;;;;;;;8.75;68.11;102022.47;682909;28;1210;-83
2022/12/01 01:26:32;;;;;;;49.20;21.85;;;;;;;8.81;67.94;102034.00;680597;29;1385;-83
2022/12/01 01:26:54;;;;;;;47.08;21.77;;;;;;;8.77;67.69;102026.03;675540;29;1284;-83
2022/12/01 01:27:14;;;;;;;44.58;21.98;;;;;;;8.76;67.59;102024.25;672411;29;1417;-82
2022/12/01 01:27:35;;;;;;;46.13;22.52;;;;;;;8.65;67.70;102017.53;672778;29;1091;-82
2022/12/01 01:27:55;;;;;;;50.25;22.92;;;;;;;8.65;68.09;102021.84;672715;29;1213;-82
2022/12/01 01:28:18;;;;;;;50.00;22.30;;;;;;;8.60;67.80;102026.75;672572;29;1122;-83
2022/12/01 01:28:40;;;;;;;50.08;22.35;;;;;;;8.60;68.05;102026.75;673017;29;832;-83
2022/12/01 01:29:03;;;;;;;50.33;22.60;;;;;;;8.61;68.08;102023.34;676364;29;1236;-83
2022/12/01 01:29:24;;;;;;;48.75;22.95;;;;;;;8.61;68.58;102025.94;674017;29;1361;-83
2022/12/01 01:29:45;;;;;;;47.58;22.50;;;;;;;8.62;68.06;102025.19;677348;29;1216;-83
2022/12/01 01:30:06;;;;;;;49.38;22.48;;;;;;;8.63;68.40;102020.06;679822;29;1077;-83
2022/12/01 01:30:27;;;;;;;50.70;22.48;;;;;;;8.58;67.86;102017.94;680206;29;1141;-82
2022/12/01 01:30:47;;;;;;;49.88;22.20;;;;;;;8.65;68.29;102033.13;680334;29;958;-84
2022/12/01 01:31:10;;;;;;;47.13;21.73;;;;;;;8.65;68.06;102035.75;682757;29;1267;-82
2022/12/01 01:31:31;;;;;;;48.42;22.13;;;;;;;8.68;67.87;102041.13;677618;29;1123;-83
2022/12/01 01:31:52;;;;;;;45.88;21.65;;;;;;;8.63;68.44;102021.75;677784;29;1194;-82
2022/12/01 01:32:13;;;;;;;50.67;22.40;;;;;;;8.63;68.25;102029.56;680222;29;1184;-83
2022/12/01 01:32:33;;;;;;;49.93;22.17;;;;;;;8.64;68.01;102023.53;680373;29;1002;-82
2022/12/01 01:32:54;;;;;;;54.30;23.02;;;;;;;8.63;68.54;102027.88;677494;29;1187;-83
2022/12/01 01:33:15;;;;;;;50.15;22.60;;;;;;;8.60;68.27;102024.16;674635;29;1149;-83
2022/12/01 01:33:36;;;;;;;48.30;22.45;;;;;;;8.60;68.38;102025.03;677391;29;886;-82
2022/12/01 01:33:57;;;;;;;44.05;21.63;;;;;;;8.67;68.18;102025.44;680276;29;816;-82
2022/12/01 01:34:18;;;;;;;46.00;22.08;;;;;;;8.71;68.17;102040.38;680101;29;979;-82
2022/12/01 01:34:38;;;;;;;49.78;22.63;;;;;;;8.65;68.29;102027.06;684438;29;1191;-83
2022/12/01 01:34:59;;;;;;;51.38;22.00;;;;;;;8.60;68.25;102038.06;681816;29;791;-82
2022/12/01 01:35:20;;;;;;;48.67;21.17;;;;;;;8.60;68.42;102037.19;679167;29;1145;-83
2022/12/01 01:35:40;;;;;;;48.33;22.42;;;;;;;8.64;68.45;102033.97;678597;29;1051;-83
2022/12/01 01:36:03;;;;;;;46.92;22.67;;;;;;;8.67;68.30;102031.53;678467;29;1283;-83
2022/12/01 01:36:24;;;;;;;46.30;23.13;;;;;;;8.67;68.06;102036.75;678297;29;1080;-83
2022/12/01 01:36:45;;;;;;;42.80;22.13;;;;;;;8.65;67.88;102035.75;675776;29;788;-82
2022/12/01 01:37:05;;;;;;;44.13;22.58;;;;;;;8.63;67.98;102033.06;680723;29;1105;-83
2022/12/01 01:37:26;;;;;;;45.83;22.33;;;;;;;8.69;67.96;102036.81;678490;29;1030;-83
2022/12/01 01:37:48;;;;;;;49.80;21.85;;;;;;;8.66;67.72;102029.72;675689;29;1116;-83
2022/12/01 01:38:10;;;;;;;46.38;20.88;;;;;;;8.65;67.80;102033.13;675508;29;1163;-83
2022/12/01 01:38:31;;;;;;;45.95;20.80;;;;;;;8.68;67.79;102038.53;678427;29;1147;-83
2022/12/01 01:38:53;;;;;;;44.65;21.20;;;;;;;8.66;68.03;102027.13;677987;29;1412;-83
2022/12/01 01:39:14;;;;;;;47.80;21.95;;;;;;;8.71;68.03;102036.09;678146;29;1081;-83
2022/12/01 01:39:34;;;;;;;45.47;21.70;;;;;;;8.70;67.98;102039.50;675658;29;1143;-82
2022/12/01 01:39:56;;;;;;;45.30;21.35;;;;;;;8.69;68.00;102029.91;672968;29;772;-83
2022/12/01 01:40:17;;;;;;;42.97;20.88;;;;;;;8.69;67.92;102035.13;677932;29;938;-82
2022/12/01 01:40:45;;;;;;;43.30;21.15;;;;;;;8.72;67.81;102031.78;678229;29;777;-83
2022/12/01 01:41:06;;;;;;;46.35;22.63;;;;;;;8.69;68.04;102035.13;680665;29;1041;-83
2022/12/01 01:41:27;;;;;;;46.75;22.40;;;;;;;8.68;67.67;102030.72;675567;29;1230;-83
2022/12/01 01:41:48;;;;;;;46.35;22.40;;;;;;;8.67;67.78;102028.94;675434;29;855;-83